Hlavní strana
METAR-TAF:

METAR-TAF

Letiště :

Dire Dawa, Etiopie

zeměpisná šířka: 09-36N, zeměpisná délka: 041-52E, výška: 1146 m

METAR: chybějící

Čas: 10:21 (07:21 UTC)

Předpověď počasí

Zpráva byla vytvořena před 3 hodinami a 51 minutami, v 03:30 UTC
Předpověď platná od 19 v 06 UTC do 20 v 12 UTC
Východojihovýchodní vítr 10 kt
Viditelnost 10 km a více
Polojasno ve výšce 3000 ft
Polojasno ve výšce 8000 ft

TAF: HADR 190330Z 1906/2012 12010KT 9999 SCT030 SCT080

Stav a předpovědi počasí z více než 4 000 letišť (zprávy METAR a TAF).

Červené a žluté tečky na mapě představují dostupné meteorologické stanice.

Když kurzor umístíte na tečku, zobrazí se název stanice.

Pak kliknutím zobrazíte stav a předpověď počasí.

Chcete-li změnit mapu, kliknutím na zelené tlačítko se znaménkem +mapu přiblížíte, kliknutím na zelené tlačítko se znaménkem – mapu oddálíte a kliknutím na zelené šipky přejdete na sousední mapy.


METAR-TAF: